Time;durP1;ratioP1;P1;durP2;ratioP2;P2;SDS_P1;SDS_P2;PMS_P1;PMS_P2;Temp;Humidity;BMP_temperature;BMP_pressure;BME280_temperature;BME280_humidity;BME280_pressure;Samples;Min_cycle;Max_cycle;Signal;HPM_P1;HPM_P2
2022/03/03 00:02:21;;;;;;;10.40;6.63;;;5.80;52.40;;;6.45;42.49;98947.97;4794404;29;108627;-82
2022/03/03 00:08:32;;;;;;;8.53;6.70;;;4.20;51.30;;;6.34;42.82;98962.81;4811466;29;125089;-79
2022/03/03 00:14:40;;;;;;;11.60;7.20;;;3.80;51.00;;;6.25;42.22;98953.53;4811834;29;110311;-75
2022/03/03 00:20:49;;;;;;;9.33;7.03;;;3.90;51.20;;;6.23;42.19;98961.22;4810933;29;125040;-76
2022/03/03 00:26:57;;;;;;;9.37;6.67;;;3.60;51.10;;;6.20;42.59;98954.38;4811790;29;110336;-75
2022/03/03 00:33:06;;;;;;;9.27;6.67;;;3.60;51.20;;;6.16;43.05;98945.06;4811252;29;125025;-77
2022/03/03 00:39:15;;;;;;;8.57;6.10;;;3.60;51.30;;;6.15;42.39;98955.22;4813105;29;110273;-75
2022/03/03 01:02:01;;;;;;;7.90;6.27;;;4.20;52.20;;;6.13;42.68;98962.09;4851581;29;110209;-74
2022/03/03 01:08:10;;;;;;;8.93;6.90;;;4.50;52.60;;;6.11;43.27;98961.53;4851011;29;126450;-74
2022/03/03 01:14:25;;;;;;;8.27;6.00;;;3.80;52.10;;;6.05;42.90;98957.19;4833040;29;110237;-76
2022/03/03 01:20:34;;;;;;;9.27;6.50;;;5.40;53.60;;;6.00;43.58;98963.50;4831979;29;125082;-76
2022/03/03 01:26:43;;;;;;;9.50;7.20;;;5.40;53.60;;;5.92;43.21;98962.13;4832796;29;110287;-77
2022/03/03 01:32:51;;;;;;;8.90;7.17;;;5.30;54.20;;;5.75;43.41;98953.38;4832040;29;125034;-80
2022/03/03 01:39:00;;;;;;;11.13;7.67;;;5.20;54.00;;;5.66;44.23;98925.69;4851020;29;110259;-76
2022/03/03 05:29:02;;;;;;;12.40;7.70;;;3.90;57.10;;;4.46;46.03;98808.56;5002740;23;98053;-79
2022/03/03 05:35:10;;;;;;;10.93;7.93;;;2.70;56.40;;;4.43;46.03;98808.03;4830746;29;125018;-77
2022/03/03 05:37:56;;;;;;;8.83;6.50;;;5.30;59.50;;;4.50;46.31;98812.41;4830163;29;123610;-85
2022/03/03 05:55:38;;;;;;;14.03;9.57;;;1.90;56.70;;;4.47;47.00;98832.91;4831968;29;110944;-78
2022/03/03 06:01:47;;;;;;;18.73;10.83;;;1.90;57.20;;;4.25;47.10;98829.59;4842495;29;124709;-82
2022/03/03 06:08:05;;;;;;;18.53;12.40;;;3.80;59.30;;;3.91;47.82;98832.78;4850331;29;111088;-77
2022/03/03 06:14:23;;;;;;;22.13;11.90;;;1.60;58.30;;;3.67;48.18;98829.69;4849593;29;124741;-79
2022/03/03 06:20:34;;;;;;;21.50;13.43;;;2.30;58.90;;;3.62;48.27;98830.47;4850083;29;110957;-77
2022/03/03 06:26:43;;;;;;;19.30;12.50;;;4.60;61.10;;;3.53;48.60;98834.81;4830797;29;124662;-76
2022/03/03 06:29:09;;;;;;;20.37;12.33;;;4.60;63.00;;;3.54;48.31;98833.72;4837706;29;109254;-90
2022/03/03 06:32:33;;;;;;;16.37;10.30;;;3.00;59.90;;;3.63;48.32;98832.13;4819229;29;108852;-89
2022/03/03 06:35:41;;;;;;;15.73;9.80;;;3.10;60.00;;;3.75;47.99;98827.25;4839303;29;123619;-89
2022/03/03 06:38:26;;;;;;;22.40;12.57;;;3.10;60.20;;;3.81;48.30;98817.16;4830884;29;124375;-90
2022/03/03 06:41:51;;;;;;;16.07;10.13;;;3.20;60.50;;;3.87;47.62;98810.63;4834777;29;108415;-88
2022/03/03 06:44:20;;;;;;;17.03;10.60;;;3.20;60.20;;;3.92;48.18;98804.34;4821979;29;108839;-88
2022/03/03 06:46:47;;;;;;;16.37;9.80;;;3.30;60.10;;;3.97;47.66;98796.97;4803268;29;123649;-90
2022/03/03 06:50:10;;;;;;;16.53;8.93;;;3.40;60.00;;;4.11;47.48;98794.56;4824373;29;123597;-77
2022/03/03 06:56:53;;;;;;;17.43;9.53;;;3.50;60.00;;;4.20;47.31;98762.03;4817632;29;110914;-79
2022/03/03 07:03:03;;;;;;;18.03;11.10;;;3.70;60.00;;;4.28;47.47;98739.63;4822456;29;124653;-77
2022/03/03 07:09:12;;;;;;;16.07;8.93;;;3.80;59.80;;;4.49;47.20;98734.16;4830186;29;110100;-89
2022/03/03 07:15:23;;;;;;;17.87;9.63;;;3.90;59.80;;;4.72;46.76;98752.72;4830433;29;124203;-86
2022/03/03 07:18:12;;;;;;;12.90;9.40;;;4.00;59.70;;;4.84;46.69;98753.28;4814317;29;110001;-85
2022/03/03 07:21:37;;;;;;;18.10;12.10;;;4.10;59.60;;;4.85;46.35;98763.13;4811885;29;109802;-83
2022/03/03 07:27:46;;;;;;;14.57;10.10;;;4.20;59.40;;;4.97;46.69;98786.66;4829407;29;124819;-87
2022/03/03 07:30:16;;;;;;;17.43;11.90;;;4.50;59.60;;;5.08;46.36;98774.59;4830052;29;109133;-86
2022/03/03 07:36:29;;;;;;;19.20;12.60;;;4.40;59.30;;;5.04;46.28;98776.25;4810400;29;125091;-88
2022/03/03 07:38:59;;;;;;;17.80;13.30;;;4.40;59.20;;;5.04;46.47;98778.97;4797464;29;123162;-86
2022/03/03 07:45:08;;;;;;;19.57;13.43;;;4.40;59.00;;;5.00;46.06;98786.13;4812254;29;111004;-84
2022/03/03 07:51:18;;;;;;;18.30;13.10;;;4.30;58.80;;;4.91;46.22;98788.56;4811124;29;124817;-77
2022/03/03 07:57:39;;;;;;;18.40;13.50;;;4.30;58.90;;;5.00;46.20;98775.16;4811713;29;111923;-75
2022/03/03 08:07:48;;;;;;;20.50;13.70;;;4.50;59.00;;;5.23;46.03;98785.50;4830237;29;110185;-77
2022/03/03 08:13:56;;;;;;;18.97;13.10;;;4.60;58.70;;;5.37;45.71;98774.78;4829657;29;125142;-80
2022/03/03 08:20:08;;;;;;;22.17;13.93;;;4.80;58.60;;;5.44;45.88;98769.81;4830146;29;110308;-76
2022/03/03 08:26:21;;;;;;;20.03;13.13;;;4.90;58.50;;;5.62;45.57;98771.13;4829506;29;125072;-77
2022/03/03 08:32:34;;;;;;;17.20;11.30;;;5.00;58.40;;;5.82;44.88;98767.47;4829932;29;110318;-84
2022/03/03 08:42:27;;;;;;;25.00;15.13;;;5.30;58.00;;;5.89;44.71;98769.91;4828057;29;124121;-89
2022/03/03 08:57:54;;;;;;;19.80;13.00;;;4.70;57.30;;;6.05;45.27;98773.44;4848190;29;111235;-76
2022/03/03 09:04:03;;;;;;;25.30;15.93;;;4.00;56.60;;;6.19;44.85;98786.22;4850547;29;125026;-85
2022/03/03 09:10:12;;;;;;;23.30;12.43;;;7.20;58.90;;;6.34;44.84;98773.47;4849937;29;110243;-86
2022/03/03 09:16:21;;;;;;;19.43;12.20;;;4.60;56.70;;;6.52;44.02;98767.31;4832046;29;125156;-87
2022/03/03 09:22:30;;;;;;;20.70;14.17;;;4.30;56.10;;;6.70;44.44;98778.72;4850726;29;110137;-84
2022/03/03 09:28:39;;;;;;;19.07;12.90;;;4.80;56.30;;;6.76;43.96;98772.88;4849789;29;125016;-91
2022/03/03 09:34:48;;;;;;;21.00;12.53;;;6.10;57.00;;;6.85;43.89;98765.69;4849305;29;111526;-89
2022/03/03 09:37:16;;;;;;;18.50;12.63;;;8.50;59.90;;;6.95;43.85;98778.47;4847379;29;109726;-89
2022/03/03 09:48:32;;;;;;;22.63;15.10;;;6.50;56.60;;;7.21;43.08;98775.50;5436801;23;97984;-87
2022/03/03 09:51:37;;;;;;;23.23;15.30;;;6.40;57.10;;;7.26;42.61;98764.44;4859607;29;124860;-88
2022/03/03 09:54:07;;;;;;;24.37;14.00;;;5.00;55.10;;;7.27;43.43;98760.56;4829447;29;123813;-89
2022/03/03 10:00:16;;;;;;;18.37;14.17;;;6.70;56.50;;;7.41;42.56;98764.25;4848917;29;112808;-79
2022/03/03 10:03:09;;;;;;;17.57;13.17;;;6.60;56.60;;;7.47;42.76;98757.59;4845681;29;123571;-88
2022/03/03 10:05:47;;;;;;;21.87;15.70;;;5.80;55.80;;;7.55;42.52;98747.06;4834976;29;121995;-89
2022/03/03 10:08:17;;;;;;;24.83;17.43;;;6.70;56.50;;;7.57;42.13;98744.84;4830205;29;108699;-78
2022/03/03 10:15:04;;;;;;;27.70;15.63;;;7.00;55.90;;;7.69;42.48;98750.75;4845979;29;124312;-88
2022/03/03 10:17:38;;;;;;;25.67;15.90;;;6.90;55.60;;;7.72;42.56;98745.47;4835020;29;122985;-89
2022/03/03 10:20:26;;;;;;;22.93;14.57;;;7.30;56.40;;;7.84;42.13;98755.22;4844179;29;109759;-88
2022/03/03 10:22:57;;;;;;;21.93;13.17;;;7.20;55.80;;;7.89;41.90;98750.44;4845599;29;109654;-89
2022/03/03 10:25:34;;;;;;;21.53;14.10;;;5.30;54.70;;;8.00;41.95;98751.13;4841829;29;123951;-89
2022/03/03 10:28:20;;;;;;;21.23;14.30;;;8.50;56.80;;;8.06;41.76;98747.22;4833724;29;123550;-89
2022/03/03 10:31:04;;;;;;;28.80;15.40;;;7.20;55.40;;;8.15;41.48;98744.59;4825729;29;109852;-88
2022/03/03 10:33:41;;;;;;;20.77;14.30;;;7.30;55.20;;;8.24;41.63;98750.25;4828131;29;110728;-89
2022/03/03 10:36:26;;;;;;;18.93;13.10;;;5.70;53.70;;;8.32;41.42;98742.13;4844735;29;123519;-89
2022/03/03 10:39:49;;;;;;;20.53;14.53;;;9.30;56.90;;;8.46;41.21;98741.41;4831378;29;122253;-87
2022/03/03 10:46:03;;;;;;;21.70;15.00;;;7.80;53.80;;;8.62;40.46;98740.03;4844124;29;110991;-89
2022/03/03 10:49:28;;;;;;;22.43;14.90;;;6.50;53.00;;;8.75;40.64;98728.22;4812761;29;124254;-88
2022/03/03 10:52:10;;;;;;;22.20;14.43;;;7.90;53.60;;;8.90;40.00;98731.84;4818169;29;123382;-88
2022/03/03 10:58:18;;;;;;;17.57;12.67;;;8.20;53.40;;;9.16;39.83;98716.50;4827450;29;110539;-89
2022/03/03 11:01:04;;;;;;;17.20;11.80;;;10.80;55.40;;;9.36;39.81;98714.44;4820037;29;123642;-89
2022/03/03 11:03:35;;;;;;;18.20;13.00;;;8.50;53.50;;;9.50;39.30;98715.25;4815746;29;123598;-89
2022/03/03 11:06:25;;;;;;;16.00;12.07;;;8.70;52.80;;;9.66;39.10;98712.97;4823256;29;110013;-89
2022/03/03 11:08:55;;;;;;;20.13;13.07;;;10.80;53.20;;;9.76;38.94;98711.97;4817761;29;110317;-89
2022/03/03 11:15:43;;;;;;;18.53;13.23;;;11.30;52.30;;;9.98;37.60;98686.34;4809877;29;124178;-89
2022/03/03 11:18:11;;;;;;;20.10;13.53;;;9.30;50.70;;;10.06;37.23;98685.59;4817436;29;108579;-89
2022/03/03 11:20:58;;;;;;;21.83;14.50;;;9.40;51.10;;;10.21;36.77;98673.38;4815791;29;109825;-89
2022/03/03 11:23:42;;;;;;;24.00;15.13;;;9.40;49.40;;;10.35;36.44;98663.13;4837955;29;124825;-89
2022/03/03 11:26:21;;;;;;;23.27;13.77;;;9.50;49.00;;;10.44;36.04;98660.44;4819861;29;123156;-88
2022/03/03 11:29:17;;;;;;;19.83;14.23;;;9.20;48.80;;;10.60;35.90;98654.19;4819377;29;108869;-87
2022/03/03 11:35:45;;;;;;;23.83;13.67;;;10.10;47.60;;;11.01;35.46;98647.53;4806502;29;124608;-87
2022/03/03 11:41:53;;;;;;;21.17;13.17;;;11.90;49.20;;;11.44;35.72;98626.69;4819584;29;115383;-88
2022/03/03 11:44:34;;;;;;;16.90;12.27;;;10.60;47.50;;;11.65;35.44;98630.47;4804901;29;97054;-88
2022/03/03 11:47:25;;;;;;;18.73;12.67;;;10.70;47.40;;;11.84;35.01;98632.94;4809419;29;123983;-88
2022/03/03 11:50:13;;;;;;;25.03;15.33;;;10.90;46.90;;;11.99;34.28;98625.34;4818842;29;125908;-88
2022/03/03 11:53:22;;;;;;;21.03;13.77;;;12.60;47.10;;;12.09;34.13;98623.03;4817589;29;115807;-87
2022/03/03 11:56:10;;;;;;;19.20;13.07;;;12.40;46.40;;;12.27;34.29;98626.59;4818884;29;114448;-89
2022/03/03 11:59:15;;;;;;;27.03;17.03;;;11.50;46.30;;;12.45;32.89;98632.13;4836638;29;124049;-90
2022/03/03 12:01:55;;;;;;;23.70;16.30;;;11.60;44.20;;;12.55;32.91;98632.59;4836603;29;123387;-87
2022/03/03 12:05:19;;;;;;;23.87;13.97;;;11.80;44.10;;;12.68;33.00;98627.16;4813553;29;114438;-89
2022/03/03 12:12:08;;;;;;;18.20;13.43;;;12.00;44.60;;;13.08;32.71;98612.97;4818701;29;125001;-88
2022/03/03 12:14:52;;;;;;;17.63;12.43;;;12.30;44.40;;;13.25;32.88;98608.16;4806608;29;124061;-90
2022/03/03 12:17:46;;;;;;;17.03;11.80;;;12.40;44.40;;;13.40;32.67;98603.22;4800129;29;114310;-88
2022/03/03 12:20:30;;;;;;;13.53;10.67;;;12.60;44.30;;;13.55;32.88;98597.06;4802518;29;114075;-88
2022/03/03 12:23:18;;;;;;;15.70;11.40;;;12.80;44.40;;;13.75;32.38;98594.66;4800692;29;126110;-88
2022/03/03 12:26:05;;;;;;;16.90;11.83;;;12.90;44.00;;;13.90;32.42;98603.19;4815347;29;123086;-91
2022/03/03 12:32:35;;;;;;;22.80;14.80;;;13.20;43.30;;;14.17;30.72;98584.31;4820112;29;115178;-92
2022/03/03 12:38:45;;;;;;;20.03;14.33;;;13.50;41.70;;;14.45;30.46;98589.25;4827635;29;124267;-92
2022/03/03 12:41:32;;;;;;;18.47;13.17;;;13.60;41.30;;;14.64;30.30;98588.75;4829301;29;115266;-92
2022/03/03 12:44:12;;;;;;;21.53;14.00;;;13.80;41.60;;;14.77;30.08;98579.28;4823891;29;114712;-92
2022/03/03 12:50:32;;;;;;;15.60;10.63;;;14.10;41.30;;;15.08;30.26;98572.34;4804908;29;124876;-90
2022/03/03 12:53:11;;;;;;;20.27;14.53;;;14.30;41.10;;;15.20;29.48;98564.00;4778612;29;115374;-90
2022/03/03 12:55:47;;;;;;;25.53;17.03;;;14.40;40.40;;;15.32;28.61;98566.78;4788720;29;115489;-88
2022/03/03 12:58:17;;;;;;;22.90;15.27;;;14.50;39.00;;;15.26;28.70;98562.63;4762449;29;124343;-89
2022/03/03 13:00:47;;;;;;;22.70;15.97;;;14.50;39.20;;;15.27;29.09;98558.66;4794731;29;123321;-90
2022/03/03 13:03:18;;;;;;;22.67;15.20;;;14.50;39.50;;;15.36;28.80;98550.97;4780791;29;113706;-86
2022/03/03 13:05:49;;;;;;;20.40;14.23;;;14.60;39.30;;;15.49;29.27;98554.56;4796589;29;113996;-90
2022/03/03 13:09:13;;;;;;;21.40;14.07;;;14.70;39.80;;;15.67;29.02;98552.31;4779063;29;123477;-89
2022/03/03 13:12:36;;;;;;;19.10;12.43;;;14.90;39.80;;;15.87;28.57;98554.13;4800974;29;124570;-89
2022/03/03 13:15:05;;;;;;;21.03;14.40;;;15.10;39.00;;;16.01;28.65;98544.56;4804934;29;114989;-91
2022/03/03 13:17:32;;;;;;;18.73;13.73;;;15.20;39.20;;;16.10;28.81;98540.47;4797255;29;113199;-89
2022/03/03 13:20:57;;;;;;;17.33;12.43;;;15.30;39.50;;;16.33;28.83;98551.03;4794820;29;124058;-90
2022/03/03 13:23:26;;;;;;;18.90;13.57;;;15.50;39.60;;;16.53;28.59;98552.78;4785490;29;123728;-91
2022/03/03 13:26:15;;;;;;;26.90;16.33;;;15.70;39.50;;;16.62;27.18;98549.81;4791281;29;113906;-89
2022/03/03 13:28:46;;;;;;;24.00;17.10;;;15.80;37.40;;;16.56;27.48;98551.25;4789311;29;113903;-90
2022/03/03 13:31:17;;;;;;;22.47;15.97;;;15.80;37.30;;;16.64;28.04;98547.47;4789737;29;124661;-91
2022/03/03 13:33:44;;;;;;;24.63;19.03;;;15.90;38.00;;;16.80;27.14;98538.34;4796508;29;124516;-91
2022/03/03 13:36:48;;;;;;;26.80;18.90;;;16.00;37.00;;;16.75;27.21;98547.75;4802704;29;114707;-91
2022/03/03 13:40:13;;;;;;;18.07;14.30;;;16.10;36.70;;;16.86;27.79;98542.47;4789792;29;113242;-90
2022/03/03 13:42:40;;;;;;;16.57;12.37;;;16.20;37.50;;;17.09;27.80;98540.66;4787545;29;124082;-93
2022/03/03 13:45:25;;;;;;;26.77;17.93;;;16.30;38.20;;;17.25;26.46;98531.41;4801013;29;122996;-92
2022/03/03 13:48:10;;;;;;;23.67;17.43;;;16.50;35.90;;;17.29;26.80;98535.94;4770232;29;114305;-91
2022/03/03 13:50:39;;;;;;;23.77;15.93;;;16.60;36.10;;;17.33;26.62;98530.41;4806181;29;113993;-90
2022/03/03 13:53:24;;;;;;;22.30;14.50;;;16.70;36.50;;;17.49;26.72;98531.19;4780751;29;123067;-91
2022/03/03 13:56:30;;;;;;;21.60;14.40;;;16.80;36.70;;;17.62;26.45;98538.28;4811423;29;123707;-93
2022/03/03 13:59:10;;;;;;;19.07;13.70;;;16.90;36.40;;;17.80;26.45;98540.66;4806859;29;113533;-92
2022/03/03 14:01:39;;;;;;;25.87;15.53;;;17.00;36.50;;;17.91;26.32;98532.50;4798350;29;113997;-93
2022/03/03 14:05:06;;;;;;;16.30;12.47;;;17.20;36.50;;;18.06;26.30;98543.59;4811927;29;123896;-91
2022/03/03 14:07:52;;;;;;;21.60;15.43;;;17.30;36.60;;;18.13;25.69;98537.34;4797711;29;124068;-92
2022/03/03 14:10:20;;;;;;;25.30;18.27;;;17.50;35.10;;;18.10;25.07;98532.47;4792719;29;112269;-92
2022/03/03 14:13:02;;;;;;;21.50;15.03;;;17.50;34.30;;;18.00;25.57;98531.13;4787509;29;113962;-92
2022/03/03 14:15:30;;;;;;;18.40;12.13;;;17.40;34.50;;;18.07;26.03;98531.22;4780974;29;123366;-90
2022/03/03 14:17:58;;;;;;;15.80;11.40;;;17.50;35.30;;;18.18;25.93;98523.06;4807127;29;124272;-93
2022/03/03 14:21:04;;;;;;;12.87;9.27;;;17.60;35.70;;;18.36;26.26;98531.78;4790698;29;113759;-92
2022/03/03 14:23:34;;;;;;;17.80;13.73;;;17.80;35.90;;;18.42;25.40;98521.91;4807703;29;113486;-93
2022/03/03 14:26:04;;;;;;;18.20;11.83;;;17.80;34.60;;;18.50;25.76;98523.66;4786917;29;124665;-90
2022/03/03 14:28:33;;;;;;;12.90;9.23;;;17.90;35.30;;;18.65;25.65;98521.94;4805321;29;123642;-90
2022/03/03 14:31:01;;;;;;;12.33;9.80;;;18.00;35.30;;;18.80;25.72;98525.00;4807351;29;113543;-91
2022/03/03 14:33:30;;;;;;;14.80;10.60;;;18.20;35.40;;;18.94;25.43;98526.06;4810292;29;114006;-91
2022/03/03 14:35:58;;;;;;;16.63;12.70;;;18.30;35.20;;;19.00;24.71;98520.13;4780296;29;122860;-90
2022/03/03 14:39:21;;;;;;;17.67;10.83;;;18.40;33.70;;;19.02;24.75;98520.56;4798598;29;123288;-93
2022/03/03 14:42:06;;;;;;;15.47;11.43;;;18.40;33.90;;;19.03;24.05;98527.78;4811487;29;115384;-89
2022/03/03 14:44:33;;;;;;;14.20;11.50;;;18.50;32.20;;;19.04;24.73;98529.38;4798813;29;115014;-89
2022/03/03 14:46:59;;;;;;;24.20;15.73;;;18.50;33.30;;;19.08;23.41;98527.47;4793414;29;124015;-91
2022/03/03 14:49:28;;;;;;;15.97;11.47;;;18.60;31.30;;;19.07;23.99;98529.44;4778673;29;121882;-91
2022/03/03 14:51:56;;;;;;;14.57;11.27;;;18.60;32.80;;;19.18;24.36;98526.81;4791686;29;113696;-88
2022/03/03 14:54:22;;;;;;;11.47;9.10;;;18.60;33.10;;;19.32;24.52;98518.63;4783268;29;114383;-91
2022/03/03 14:56:48;;;;;;;10.20;8.03;;;18.70;33.50;;;19.43;24.57;98508.38;4786305;29;123033;-91
2022/03/03 14:59:16;;;;;;;11.13;7.87;;;18.90;33.80;;;19.53;24.48;98506.09;4781318;29;123616;-89
2022/03/03 15:02:07;;;;;;;8.83;6.90;;;19.00;33.70;;;19.65;24.56;98506.69;4794029;29;114353;-93
2022/03/03 15:04:54;;;;;;;9.33;7.50;;;18.60;33.40;;;19.79;24.57;98508.06;4814043;29;114809;-93
2022/03/03 15:07:20;;;;;;;10.30;8.50;;;19.30;33.60;;;19.88;24.04;98504.97;4793105;29;123930;-93
2022/03/03 15:09:47;;;;;;;10.97;8.17;;;19.30;33.20;;;19.90;24.02;98497.00;4804685;29;122188;-89
2022/03/03 15:12:14;;;;;;;10.80;8.13;;;19.40;33.20;;;19.92;23.68;98498.22;4784145;29;114733;-90
2022/03/03 15:14:40;;;;;;;16.10;12.33;;;19.50;32.70;;;19.93;23.28;98496.22;4779394;29;113712;-90
2022/03/03 15:17:08;;;;;;;16.20;12.50;;;19.50;31.60;;;19.86;23.02;98494.97;4779245;29;123220;-90
2022/03/03 15:19:54;;;;;;;14.70;11.30;;;19.50;31.40;;;19.79;23.25;98508.88;4784098;29;123933;-92
2022/03/03 15:26:04;;;;;;;13.27;8.37;;;19.50;31.70;;;19.85;23.53;98509.34;4782203;29;113871;-92
2022/03/03 15:28:30;;;;;;;14.37;10.90;;;19.50;31.60;;;19.90;22.88;98514.63;4783781;29;124763;-91
2022/03/03 15:31:17;;;;;;;12.53;9.90;;;19.50;30.80;;;19.92;22.79;98514.25;4783446;29;124297;-93
2022/03/03 15:36:51;;;;;;;7.60;6.00;;;19.60;31.00;;;20.04;22.89;98502.75;4793174;29;116629;-90
2022/03/03 15:39:21;;;;;;;7.00;5.50;;;19.70;31.20;;;20.16;23.20;98491.28;4776984;29;124650;-88
2022/03/03 15:41:52;;;;;;;8.87;7.60;;;19.80;31.10;;;20.23;22.96;98493.34;4786445;29;123610;-89
2022/03/03 15:44:19;;;;;;;9.23;6.63;;;19.90;30.60;;;20.30;22.72;98483.00;4803543;29;114704;-93
2022/03/03 15:47:24;;;;;;;7.30;6.30;;;20.00;30.70;;;20.36;22.77;98491.09;4822110;29;113787;-93
2022/03/03 15:49:51;;;;;;;11.53;6.63;;;20.20;30.40;;;20.39;22.63;98479.09;4796163;29;124128;-91
2022/03/03 15:52:17;;;;;;;9.53;7.07;;;20.40;30.10;;;20.45;22.39;98469.13;4794888;29;124362;-90
2022/03/03 15:54:44;;;;;;;7.60;6.23;;;20.50;30.40;;;20.48;22.34;98471.16;4801447;29;114101;-91
2022/03/03 15:57:13;;;;;;;6.97;6.00;;;20.70;29.80;;;20.51;22.32;98470.41;4803306;29;114036;-92
2022/03/03 15:59:40;;;;;;;8.80;7.37;;;20.80;29.60;;;20.56;22.17;98472.06;4808445;29;125009;-92
2022/03/03 16:02:46;;;;;;;9.00;6.73;;;21.00;29.50;;;20.61;22.00;98477.34;4806673;29;123838;-93
2022/03/03 16:05:13;;;;;;;9.80;7.10;;;21.20;29.30;;;20.69;22.27;98471.38;4814554;29;114974;-93
2022/03/03 16:07:39;;;;;;;8.93;7.77;;;21.30;29.30;;;20.77;22.16;98483.50;4810386;29;113744;-91
2022/03/03 16:10:07;;;;;;;7.67;6.40;;;21.40;28.80;;;20.84;21.80;98488.34;4812497;29;123844;-90
2022/03/03 16:12:34;;;;;;;8.07;6.57;;;21.50;29.00;;;20.93;22.17;98486.03;4817595;29;123726;-92
2022/03/03 16:15:01;;;;;;;6.80;5.97;;;21.60;28.90;;;21.02;21.86;98477.25;4813856;29;113991;-90
2022/03/03 16:17:28;;;;;;;8.83;6.80;;;21.80;28.80;;;21.05;21.75;98474.47;4815817;29;113031;-92
2022/03/03 16:20:14;;;;;;;7.93;6.20;;;21.80;28.50;;;21.09;21.48;98477.28;4815457;29;123374;-92
2022/03/03 16:22:41;;;;;;;6.93;5.93;;;21.90;28.40;;;21.08;21.77;98476.50;4815820;29;124044;-93
2022/03/03 16:25:08;;;;;;;8.30;7.10;;;21.90;28.30;;;21.05;21.67;98480.09;4812363;29;115641;-91
2022/03/03 16:27:34;;;;;;;7.90;6.40;;;21.80;28.00;;;20.92;21.21;98473.16;4810261;29;114966;-89
2022/03/03 16:30:23;;;;;;;7.93;6.43;;;21.60;27.80;;;20.74;21.38;98478.66;4806413;29;123652;-89
2022/03/03 16:32:52;;;;;;;8.03;5.90;;;21.50;27.70;;;20.50;21.25;98471.59;4778750;29;123403;-92
2022/03/03 16:35:21;;;;;;;7.90;6.40;;;21.20;27.60;;;20.29;21.58;98477.81;4782079;29;113475;-91
2022/03/03 16:37:48;;;;;;;7.90;7.10;;;20.90;27.50;;;20.08;21.68;98481.19;4778776;29;113864;-91
2022/03/03 16:40:14;;;;;;;10.17;6.17;;;20.60;27.60;;;19.89;21.50;98478.56;4775376;29;124140;-91
2022/03/03 16:42:41;;;;;;;7.40;6.30;;;20.40;27.60;;;19.72;21.57;98486.38;4778117;29;123093;-89
2022/03/03 16:45:08;;;;;;;9.50;6.10;;;20.10;27.60;;;19.51;21.42;98480.47;4763157;29;116218;-89
2022/03/03 16:47:36;;;;;;;6.33;5.73;;;19.90;27.60;;;19.30;21.66;98487.38;4776160;29;113985;-90
2022/03/03 16:50:06;;;;;;;7.93;6.33;;;19.60;27.60;;;19.10;21.91;98488.69;4763927;29;123852;-90
2022/03/03 16:52:32;;;;;;;7.03;5.83;;;19.40;27.70;;;18.90;21.65;98485.97;4775987;29;124018;-90
2022/03/03 16:55:00;;;;;;;8.40;6.70;;;19.10;27.70;;;18.69;22.01;98480.00;4778713;29;113443;-90
2022/03/03 16:57:26;;;;;;;8.30;6.70;;;18.90;27.80;;;18.49;22.12;98491.28;4780490;29;114824;-89
2022/03/03 16:59:53;;;;;;;9.40;6.30;;;18.70;27.90;;;18.29;22.12;98492.50;4777769;29;124161;-90
2022/03/03 17:02:20;;;;;;;7.03;6.20;;;18.40;27.90;;;18.10;22.38;98494.16;4777033;29;123873;-89
2022/03/03 17:04:47;;;;;;;8.57;6.53;;;18.20;27.90;;;17.91;22.20;98499.75;4778263;29;114173;-90
2022/03/03 17:07:15;;;;;;;7.80;6.27;;;18.00;28.00;;;17.72;22.54;98499.75;4779078;29;113275;-90
2022/03/03 17:09:41;;;;;;;6.87;5.90;;;17.80;28.00;;;17.53;22.68;98506.13;4790327;29;123864;-89
2022/03/03 17:12:08;;;;;;;7.20;5.60;;;17.60;28.10;;;17.33;22.68;98511.69;4789054;29;121850;-90
2022/03/03 17:14:37;;;;;;;8.37;6.27;;;17.40;28.20;;;17.13;22.89;98510.81;4806370;29;113935;-89
2022/03/03 17:18:02;;;;;;;8.37;6.90;;;17.20;28.30;;;16.88;23.01;98515.03;4806461;29;114989;-89
2022/03/03 17:21:07;;;;;;;9.27;7.90;;;16.90;28.30;;;16.57;23.18;98519.38;4807752;29;124172;-90
2022/03/03 17:23:34;;;;;;;10.67;7.90;;;16.60;28.40;;;16.39;23.50;98518.94;4790739;29;123202;-88
2022/03/03 17:26:01;;;;;;;9.20;7.40;;;16.40;28.60;;;16.25;23.54;98519.34;4807991;29;113989;-88
2022/03/03 17:28:30;;;;;;;9.60;7.03;;;16.20;28.80;;;16.11;23.58;98522.56;4813484;29;112185;-89
2022/03/03 17:31:18;;;;;;;8.50;6.60;;;16.00;28.80;;;15.95;23.85;98521.72;4813512;29;124063;-89
2022/03/03 17:33:46;;;;;;;8.67;6.87;;;15.90;29.00;;;15.81;23.91;98536.06;4808506;29;124285;-89
2022/03/03 17:36:17;;;;;;;10.37;7.53;;;15.70;29.10;;;15.66;23.95;98532.03;4807013;29;114711;-91
2022/03/03 17:38:46;;;;;;;11.83;7.03;;;15.60;29.20;;;15.53;24.18;98532.38;4800531;29;113801;-90
2022/03/03 17:41:15;;;;;;;8.00;6.23;;;15.40;29.30;;;15.41;24.44;98541.59;4813726;29;123511;-90
2022/03/03 17:44:04;;;;;;;8.67;6.30;;;15.30;29.60;;;15.24;24.49;98542.66;4813616;29;123193;-89
2022/03/03 17:46:32;;;;;;;6.73;5.83;;;15.10;29.50;;;15.10;24.62;98545.81;4807167;29;113416;-89
2022/03/03 17:49:00;;;;;;;10.63;7.87;;;14.90;29.50;;;14.97;24.85;98544.19;4802101;29;113352;-89
2022/03/03 17:51:28;;;;;;;8.33;6.27;;;14.80;29.70;;;14.86;24.79;98552.19;4800466;29;122624;-90
2022/03/03 17:54:16;;;;;;;8.60;6.80;;;14.60;29.70;;;14.72;24.80;98551.69;4797494;29;124021;-90
2022/03/03 17:56:44;;;;;;;7.50;5.80;;;14.50;29.80;;;14.59;25.14;98550.88;4822094;29;113292;-90
2022/03/03 17:59:48;;;;;;;7.40;5.77;;;14.40;29.90;;;14.47;25.09;98568.31;4820053;29;114797;-90
2022/03/03 18:09:45;;;;;;;7.50;5.53;;;13.90;29.90;;;13.99;25.16;98561.44;4816270;29;115597;-89
2022/03/03 18:12:32;;;;;;;8.00;6.07;;;13.70;29.90;;;13.89;25.27;98575.75;4811473;29;112738;-90
2022/03/03 18:15:20;;;;;;;9.03;6.57;;;13.60;29.90;;;13.77;25.32;98578.47;4823321;29;122782;-89
2022/03/03 18:17:48;;;;;;;8.30;5.43;;;13.50;29.90;;;13.66;25.37;98581.66;4822447;29;124346;-90
2022/03/03 18:20:34;;;;;;;8.93;5.50;;;13.40;30.00;;;13.58;25.43;98582.53;4823736;29;114986;-90
2022/03/03 18:30:41;;;;;;;8.67;5.43;;;13.00;30.00;;;13.21;25.52;98590.56;4831057;29;124812;-90
2022/03/03 18:34:06;;;;;;;7.07;5.13;;;12.90;30.10;;;13.11;25.61;98604.81;4839087;29;114034;-90
2022/03/03 18:40:14;;;;;;;6.00;4.80;;;12.70;30.10;;;12.88;25.44;98609.00;4808426;29;125188;-90
2022/03/03 18:46:23;;;;;;;6.80;4.77;;;12.50;30.00;;;12.66;25.59;98608.09;4814382;29;115470;-88
2022/03/03 18:48:50;;;;;;;6.30;5.10;;;12.30;30.00;;;12.62;25.63;98620.16;4811716;29;114864;-89
2022/03/03 18:54:58;;;;;;;6.90;5.00;;;12.20;30.90;;;12.50;25.94;98623.63;4817276;29;124844;-90
2022/03/03 18:57:26;;;;;;;8.40;5.00;;;12.10;30.40;;;12.45;25.96;98623.81;4820846;29;114609;-89
2022/03/03 19:00:12;;;;;;;6.13;4.57;;;12.00;30.20;;;12.39;25.92;98625.94;4814134;29;114083;-88
2022/03/03 19:02:38;;;;;;;6.43;4.70;;;12.00;30.20;;;12.33;25.88;98627.22;4821631;29;125049;-88
2022/03/03 19:06:03;;;;;;;7.80;4.27;;;12.00;30.30;;;12.24;26.11;98624.47;4824144;29;124545;-88
2022/03/03 19:09:08;;;;;;;6.73;4.30;;;11.90;30.10;;;12.13;25.80;98623.19;4821188;29;115189;-89
2022/03/03 19:11:37;;;;;;;6.07;4.23;;;11.70;30.00;;;12.06;25.97;98625.63;4831500;29;115771;-88
2022/03/03 19:14:45;;;;;;;6.03;4.27;;;11.60;30.00;;;11.99;25.75;98630.88;4820920;29;123947;-89
2022/03/03 19:18:15;;;;;;;5.13;3.63;;;11.60;30.00;;;11.90;25.55;98640.00;4812780;29;123427;-87
2022/03/03 19:24:23;;;;;;;5.73;4.20;;;11.40;29.90;;;11.70;26.02;98646.13;4821353;29;114322;-90
2022/03/03 19:26:51;;;;;;;6.17;4.47;;;11.30;29.90;;;11.67;26.16;98646.78;4815155;29;123957;-88
2022/03/03 19:35:48;;;;;;;6.03;4.47;;;11.10;30.00;;;11.52;26.35;98650.00;4839686;29;114264;-87
2022/03/03 19:38:35;;;;;;;7.67;4.93;;;11.10;30.00;;;11.48;26.28;98650.63;4826821;29;123674;-89